Time;durP1;ratioP1;P1;durP2;ratioP2;P2;SDS_P1;SDS_P2;PMS_P1;PMS_P2;Temp;Humidity;BMP_temperature;BMP_pressure;BME280_temperature;BME280_humidity;BME280_pressure;Samples;Min_cycle;Max_cycle;Signal;HPM_P1;HPM_P2
2022/05/23 00:02:16;;;;;;;9.43;3.20;;;13.40;99.90;;;;;;5032622;28;20129;-81
2022/05/23 00:04:42;;;;;;;9.35;3.30;;;13.40;99.90;;;;;;5032145;28;20124;-81
2022/05/23 00:07:15;;;;;;;7.75;3.00;;;13.40;99.90;;;;;;5031862;28;20038;-81
2022/05/23 00:09:41;;;;;;;8.38;3.40;;;13.30;99.90;;;;;;5031345;28;20095;-81
2022/05/23 00:12:08;;;;;;;10.63;3.30;;;13.30;99.90;;;;;;5029874;28;20543;-81
2022/05/23 00:14:33;;;;;;;9.50;3.33;;;13.20;99.90;;;;;;5031120;28;20050;-81
2022/05/23 00:16:59;;;;;;;9.52;3.50;;;13.20;99.90;;;;;;5030819;28;20485;-81
2022/05/23 00:19:25;;;;;;;8.65;3.00;;;13.20;99.90;;;;;;5029965;28;20139;-81
2022/05/23 00:21:51;;;;;;;8.05;3.00;;;13.20;99.90;;;;;;5032204;28;20083;-81
2022/05/23 00:24:20;;;;;;;9.30;3.40;;;13.20;99.90;;;;;;5032472;28;20052;-81
2022/05/23 00:26:46;;;;;;;10.57;3.15;;;13.20;99.90;;;;;;5031862;28;20595;-81
2022/05/23 00:29:12;;;;;;;9.73;2.97;;;13.10;99.90;;;;;;5035745;28;20037;-81
2022/05/23 00:35:17;;;;;;;7.82;3.10;;;13.10;99.90;;;;;;5035767;28;20488;-81
2022/05/23 00:37:07;;;;;;;9.85;3.20;;;13.00;99.90;;;;;;5035892;28;20046;-81
2022/05/23 00:39:33;;;;;;;9.85;3.20;;;13.00;99.90;;;;;;5034077;28;20404;-81
2022/05/23 00:44:42;;;;;;;7.82;2.92;;;13.00;99.90;;;;;;5067170;28;20053;-81
2022/05/23 00:47:26;;;;;;;9.30;3.42;;;12.90;99.90;;;;;;5034145;28;20045;-81
2022/05/23 00:49:52;;;;;;;8.25;3.35;;;12.90;99.90;;;;;;5035365;28;20051;-81
2022/05/23 00:52:32;;;;;;;8.55;3.00;;;12.90;99.90;;;;;;5034043;28;20095;-81
2022/05/23 00:55:01;;;;;;;11.20;3.67;;;12.80;99.90;;;;;;5033110;28;20512;-81
2022/05/23 00:57:37;;;;;;;8.75;3.30;;;12.90;99.90;;;;;;5035639;28;20124;-81
2022/05/23 01:00:07;;;;;;;8.75;3.22;;;12.80;99.90;;;;;;5034878;28;20053;-81
2022/05/23 01:02:36;;;;;;;9.63;3.38;;;12.80;99.90;;;;;;5033369;28;20052;-81
2022/05/23 01:05:06;;;;;;;8.77;3.25;;;12.80;99.90;;;;;;5034898;28;20057;-81
2022/05/23 01:07:31;;;;;;;8.27;3.08;;;12.70;99.90;;;;;;5035151;28;20048;-81
2022/05/23 01:09:57;;;;;;;8.85;3.30;;;12.70;99.90;;;;;;5034104;28;20042;-81
2022/05/23 01:12:23;;;;;;;10.75;3.28;;;12.70;99.90;;;;;;5034862;28;20060;-81
2022/05/23 01:14:52;;;;;;;8.90;3.10;;;12.60;99.90;;;;;;5034665;28;20076;-81
2022/05/23 01:17:18;;;;;;;10.05;3.30;;;12.60;99.90;;;;;;5032865;28;20053;-82
2022/05/23 01:19:44;;;;;;;9.38;3.20;;;12.60;99.90;;;;;;5032889;28;20527;-82
2022/05/23 01:22:34;;;;;;;8.27;3.30;;;12.60;99.90;;;;;;5034807;28;20128;-81
2022/05/23 01:25:07;;;;;;;8.50;3.30;;;12.50;99.90;;;;;;5033384;28;20598;-81
2022/05/23 01:27:34;;;;;;;8.38;3.05;;;12.50;99.90;;;;;;5034950;28;20041;-81
2022/05/23 01:30:00;;;;;;;8.27;3.13;;;12.50;99.90;;;;;;5033466;28;20572;-81
2022/05/23 01:32:25;;;;;;;9.75;3.35;;;12.50;99.90;;;;;;5033239;28;20160;-81
2022/05/23 01:34:51;;;;;;;8.77;3.08;;;12.40;99.90;;;;;;5032974;28;20044;-81
2022/05/23 01:37:16;;;;;;;8.75;3.08;;;12.50;99.90;;;;;;5033891;28;20041;-81
2022/05/23 01:39:42;;;;;;;10.82;3.10;;;12.50;99.90;;;;;;5034089;28;20140;-81
2022/05/23 01:42:08;;;;;;;7.85;3.00;;;12.40;99.90;;;;;;5032833;28;20041;-82
2022/05/23 01:44:34;;;;;;;10.05;3.35;;;12.50;99.90;;;;;;5032876;28;20072;-81
2022/05/23 01:47:10;;;;;;;8.70;3.00;;;12.50;99.90;;;;;;5034169;28;20080;-81
2022/05/23 01:49:35;;;;;;;9.95;3.20;;;12.50;99.90;;;;;;5033114;28;20073;-81
2022/05/23 01:52:01;;;;;;;12.88;3.53;;;12.50;99.90;;;;;;5033326;28;20504;-82
2022/05/23 01:54:27;;;;;;;11.30;3.78;;;12.50;99.90;;;;;;5034156;28;20401;-81
2022/05/23 01:56:53;;;;;;;9.57;3.25;;;12.60;99.90;;;;;;5033990;28;20041;-81
2022/05/23 02:02:03;;;;;;;;;;;12.60;99.90;;;;;;5065071;28;20050;-81
2022/05/23 02:04:28;;;;;;;7.80;3.13;;;12.60;99.90;;;;;;5033283;28;19917;-81
2022/05/23 02:06:54;;;;;;;7.82;3.08;;;12.60;99.90;;;;;;5032582;28;20397;-81
2022/05/23 02:09:26;;;;;;;8.27;3.15;;;12.60;99.90;;;;;;5032847;28;20052;-81
2022/05/23 02:11:52;;;;;;;7.95;3.10;;;12.60;99.90;;;;;;5032956;28;20052;-82
2022/05/23 02:14:18;;;;;;;7.95;3.20;;;12.60;99.90;;;;;;5032304;28;20090;-81
2022/05/23 02:16:44;;;;;;;11.13;3.60;;;12.60;99.90;;;;;;5033634;28;20034;-81
2022/05/23 02:19:09;;;;;;;8.45;3.15;;;12.50;99.90;;;;;;5031413;28;20053;-82
2022/05/23 02:21:35;;;;;;;8.10;3.10;;;12.50;99.90;;;;;;5033866;28;20140;-81
2022/05/23 02:24:03;;;;;;;8.15;3.20;;;12.50;99.90;;;;;;5033232;28;20132;-82
2022/05/23 02:26:29;;;;;;;8.73;3.50;;;12.60;99.90;;;;;;5031864;28;20545;-81
2022/05/23 02:28:55;;;;;;;10.30;3.50;;;12.60;99.90;;;;;;5033188;28;20132;-81
2022/05/23 02:31:21;;;;;;;9.27;3.65;;;12.60;99.90;;;;;;5033538;28;20042;-81
2022/05/23 02:33:46;;;;;;;10.30;3.35;;;12.60;99.90;;;;;;5032627;28;20397;-82
2022/05/23 02:36:12;;;;;;;9.07;3.60;;;12.60;99.90;;;;;;5032044;28;20039;-81
2022/05/23 02:38:37;;;;;;;8.55;3.50;;;12.60;99.90;;;;;;5032076;28;20053;-81
2022/05/23 02:41:03;;;;;;;9.45;3.60;;;12.60;99.90;;;;;;5031137;28;20055;-81
2022/05/23 02:43:30;;;;;;;9.90;3.70;;;12.60;99.90;;;;;;5033201;28;20033;-81
2022/05/23 02:45:56;;;;;;;8.20;3.50;;;12.60;99.90;;;;;;5033152;28;20045;-81
2022/05/23 02:48:21;;;;;;;8.30;3.58;;;12.70;99.90;;;;;;5032303;28;20044;-81
2022/05/23 02:50:47;;;;;;;8.15;3.38;;;12.70;99.90;;;;;;5033028;28;20041;-82
2022/05/23 02:53:13;;;;;;;9.23;3.38;;;12.70;99.90;;;;;;5033360;28;20049;-81
2022/05/23 02:55:39;;;;;;;10.18;3.67;;;12.60;99.90;;;;;;5031086;28;20057;-82
2022/05/23 02:58:07;;;;;;;9.18;3.75;;;12.70;99.90;;;;;;5033087;28;20044;-81
2022/05/23 03:00:33;;;;;;;9.52;3.83;;;12.70;99.90;;;;;;5033233;28;20160;-81
2022/05/23 03:03:01;;;;;;;9.35;3.80;;;12.70;99.90;;;;;;5032252;28;20037;-81
2022/05/23 03:05:37;;;;;;;8.27;3.38;;;12.70;99.90;;;;;;5033194;28;20046;-81
2022/05/23 03:08:03;;;;;;;8.20;3.55;;;12.70;99.90;;;;;;5032083;28;20042;-81
2022/05/23 03:10:29;;;;;;;8.75;3.58;;;12.70;99.90;;;;;;5033247;28;20067;-81
2022/05/23 03:12:55;;;;;;;11.32;3.80;;;12.70;99.90;;;;;;5032753;28;20485;-81
2022/05/23 03:15:21;;;;;;;10.70;4.45;;;12.80;99.90;;;;;;5031698;28;20049;-82
2022/05/23 03:17:46;;;;;;;9.70;3.90;;;12.80;99.90;;;;;;5031830;28;20448;-81
2022/05/23 03:20:12;;;;;;;9.68;3.88;;;12.80;99.90;;;;;;5031423;28;20107;-81
2022/05/23 03:28:06;;;;;;;9.13;3.72;;;12.80;99.90;;;;;;5032644;28;20045;-81
2022/05/23 03:30:33;;;;;;;10.90;4.30;;;12.80;99.90;;;;;;5030651;28;20051;-81
2022/05/23 03:32:59;;;;;;;10.02;4.18;;;12.80;99.90;;;;;;5032204;28;20489;-81
2022/05/23 03:35:27;;;;;;;9.80;3.90;;;12.80;99.90;;;;;;5032818;28;20077;-81
2022/05/23 03:37:53;;;;;;;9.38;4.00;;;12.80;99.90;;;;;;5031676;28;20045;-81
2022/05/23 03:40:18;;;;;;;9.93;4.20;;;12.80;99.90;;;;;;5032500;28;20041;-81
2022/05/23 03:42:44;;;;;;;9.10;4.03;;;12.80;99.90;;;;;;5032136;28;20452;-82
2022/05/23 03:45:10;;;;;;;10.73;4.00;;;12.80;99.90;;;;;;5031987;28;20084;-81
2022/05/23 03:47:36;;;;;;;9.18;3.85;;;12.90;99.90;;;;;;5032645;28;20034;-81
2022/05/23 03:50:03;;;;;;;10.30;4.10;;;12.80;99.90;;;;;;5032569;28;20046;-81
2022/05/23 03:52:28;;;;;;;9.27;3.85;;;12.80;99.90;;;;;;5030759;28;20042;-82
2022/05/23 03:54:54;;;;;;;10.00;3.92;;;12.90;99.90;;;;;;5032420;28;20448;-81
2022/05/23 03:57:20;;;;;;;11.20;4.20;;;12.90;99.90;;;;;;5030565;28;20046;-81
2022/05/23 03:59:45;;;;;;;10.40;4.10;;;12.90;99.90;;;;;;5031999;28;20037;-81
2022/05/23 04:02:11;;;;;;;10.88;3.60;;;12.90;99.90;;;;;;5035602;28;20073;-81
2022/05/23 04:04:37;;;;;;;9.98;3.80;;;12.90;99.90;;;;;;5035432;28;20037;-81
2022/05/23 04:07:05;;;;;;;9.32;4.03;;;13.00;99.90;;;;;;5035652;28;20115;-81
2022/05/23 04:09:32;;;;;;;11.63;3.90;;;13.00;99.90;;;;;;5036636;28;20116;-81
2022/05/23 04:11:58;;;;;;;10.43;4.00;;;13.00;99.90;;;;;;5035167;28;20041;-82
2022/05/23 04:14:28;;;;;;;9.57;3.67;;;13.00;99.90;;;;;;5036104;28;20042;-81
2022/05/23 04:16:54;;;;;;;10.55;4.00;;;13.00;99.90;;;;;;5035885;28;20099;-81
2022/05/23 04:19:21;;;;;;;9.18;3.83;;;13.00;99.90;;;;;;5034942;28;20057;-82
2022/05/23 04:21:47;;;;;;;11.02;3.85;;;13.00;99.90;;;;;;5035836;28;20041;-81
2022/05/23 04:24:18;;;;;;;11.07;4.03;;;13.00;99.90;;;;;;5036069;28;20128;-82
2022/05/23 04:26:44;;;;;;;9.70;4.10;;;13.00;99.90;;;;;;5033849;28;20064;-81
2022/05/23 04:29:10;;;;;;;12.07;4.70;;;13.00;99.90;;;;;;5035717;28;20045;-81
2022/05/23 04:31:36;;;;;;;9.75;4.15;;;12.90;99.90;;;;;;5036035;28;20076;-81
2022/05/23 04:36:48;;;;;;;11.25;4.57;;;12.90;99.90;;;;;;5067397;28;20462;-82
2022/05/23 04:39:14;;;;;;;10.73;4.10;;;12.90;99.90;;;;;;5035831;28;20052;-81
2022/05/23 04:41:39;;;;;;;10.52;4.13;;;12.90;99.90;;;;;;5033459;28;20145;-82
2022/05/23 04:44:07;;;;;;;12.82;4.30;;;12.90;99.90;;;;;;5035804;28;20045;-81
2022/05/23 04:46:33;;;;;;;11.50;4.30;;;12.90;99.90;;;;;;5033780;28;20127;-81
2022/05/23 04:51:42;;;;;;;;;;;12.90;99.90;;;;;;5035871;28;20140;-81
2022/05/23 04:54:08;;;;;;;12.93;4.20;;;13.00;99.90;;;;;;5034700;28;20007;-81
2022/05/23 04:56:34;;;;;;;11.15;4.28;;;13.20;99.90;;;;;;5035422;28;20049;-81
2022/05/23 04:58:59;;;;;;;11.52;4.50;;;13.30;99.90;;;;;;5035115;28;20075;-81
2022/05/23 05:01:25;;;;;;;12.30;4.60;;;13.40;99.90;;;;;;5033598;28;20045;-81
2022/05/23 05:03:53;;;;;;;10.05;4.35;;;13.50;99.90;;;;;;5033896;28;20438;-82
2022/05/23 05:06:21;;;;;;;10.93;4.00;;;13.90;99.90;;;;;;5034976;28;20045;-81
2022/05/23 05:08:48;;;;;;;11.25;4.40;;;13.70;99.90;;;;;;5034065;28;20052;-81
2022/05/23 05:11:13;;;;;;;13.52;4.70;;;13.70;99.90;;;;;;5033821;28;20041;-81
2022/05/23 05:13:39;;;;;;;11.63;4.82;;;13.70;99.90;;;;;;5033546;28;20053;-81
2022/05/23 05:16:06;;;;;;;11.50;4.50;;;13.80;99.90;;;;;;5033870;28;20038;-81
2022/05/23 05:18:33;;;;;;;9.68;4.20;;;13.80;99.90;;;;;;5033295;28;20061;-81
2022/05/23 05:21:10;;;;;;;11.13;4.75;;;13.90;99.90;;;;;;5034532;28;20045;-81
2022/05/23 05:23:36;;;;;;;11.43;4.68;;;13.80;99.90;;;;;;5034180;28;20123;-81
2022/05/23 05:26:07;;;;;;;10.30;4.95;;;13.80;99.90;;;;;;5034612;28;20048;-81
2022/05/23 05:28:33;;;;;;;12.50;4.75;;;13.80;99.90;;;;;;5034570;28;20041;-81
2022/05/23 05:31:08;;;;;;;10.88;4.90;;;13.90;99.90;;;;;;5032828;28;20515;-81
2022/05/23 05:33:40;;;;;;;11.25;4.80;;;13.80;99.90;;;;;;5034583;28;20496;-81
2022/05/23 05:36:18;;;;;;;11.45;4.88;;;13.90;99.90;;;;;;5034496;28;20041;-81
2022/05/23 05:38:53;;;;;;;10.65;5.00;;;13.90;99.90;;;;;;5033049;28;20396;-81
2022/05/23 05:41:25;;;;;;;13.25;5.07;;;14.00;99.90;;;;;;5032886;28;20071;-81
2022/05/23 05:43:59;;;;;;;10.95;5.80;;;14.10;99.90;;;;;;5031908;28;20073;-81
2022/05/23 05:46:28;;;;;;;14.20;5.53;;;14.20;99.90;;;;;;5034305;28;20037;-84
2022/05/23 05:48:55;;;;;;;13.88;5.30;;;14.30;99.90;;;;;;5033651;28;20489;-89
2022/05/23 05:51:24;;;;;;;12.75;5.50;;;14.40;99.90;;;;;;5033520;28;20551;-88
2022/05/23 05:53:50;;;;;;;11.68;5.85;;;14.60;99.90;;;;;;5032738;28;20485;-86
2022/05/23 05:56:16;;;;;;;14.40;5.57;;;14.70;99.90;;;;;;5033284;28;20079;-86
2022/05/23 05:58:42;;;;;;;11.20;5.10;;;14.70;99.90;;;;;;5033042;28;20045;-85
2022/05/23 06:01:08;;;;;;;12.45;5.20;;;14.80;99.90;;;;;;5032861;28;20046;-85
2022/05/23 06:03:34;;;;;;;13.30;5.97;;;14.90;99.90;;;;;;5034209;28;20046;-85
2022/05/23 06:11:29;;;;;;;13.15;5.50;;;15.10;99.90;;;;;;5032913;28;20049;-83
2022/05/23 06:13:59;;;;;;;10.48;5.57;;;15.20;99.90;;;;;;5032181;28;20034;-82
2022/05/23 06:16:27;;;;;;;13.23;5.60;;;15.30;99.90;;;;;;5032925;28;20041;-84
2022/05/23 06:18:53;;;;;;;12.05;5.55;;;15.40;99.90;;;;;;5028411;28;20061;-84
2022/05/23 06:21:19;;;;;;;11.63;5.80;;;15.50;99.90;;;;;;5033319;28;20100;-84
2022/05/23 06:23:48;;;;;;;13.63;5.30;;;15.60;99.90;;;;;;5029559;28;20048;-83
2022/05/23 06:26:21;;;;;;;11.80;5.70;;;15.70;99.90;;;;;;5032287;28;20069;-83
2022/05/23 06:28:47;;;;;;;11.48;5.18;;;15.90;99.90;;;;;;5012114;28;20053;-83
2022/05/23 06:31:15;;;;;;;11.07;5.60;;;16.00;99.90;;;;;;5013600;28;20096;-84
2022/05/23 06:33:41;;;;;;;11.65;5.63;;;16.10;99.90;;;;;;5012859;28;20050;-83
2022/05/23 06:36:08;;;;;;;10.88;5.55;;;16.20;99.90;;;;;;5012521;28;20054;-85
2022/05/23 06:38:36;;;;;;;11.88;5.40;;;16.30;99.90;;;;;;5014793;28;20045;-83
2022/05/23 06:41:03;;;;;;;11.25;5.03;;;16.40;99.90;;;;;;5031900;28;20040;-84
2022/05/23 06:43:29;;;;;;;10.45;5.22;;;16.50;99.90;;;;;;5031748;28;20088;-83
2022/05/23 06:45:55;;;;;;;13.00;5.57;;;16.70;99.90;;;;;;5031422;28;20041;-83
2022/05/23 06:48:22;;;;;;;11.07;5.35;;;16.80;99.90;;;;;;5032392;28;20050;-84
2022/05/23 06:50:50;;;;;;;10.18;4.95;;;16.90;99.90;;;;;;5032998;28;20060;-83
2022/05/23 06:53:16;;;;;;;10.45;4.90;;;17.00;99.90;;;;;;5032492;28;20041;-83
2022/05/23 06:55:42;;;;;;;10.75;5.28;;;17.10;99.90;;;;;;5032470;28;20053;-83
2022/05/23 06:58:09;;;;;;;11.77;5.32;;;17.30;99.90;;;;;;5031710;28;20045;-83
2022/05/23 07:00:36;;;;;;;12.85;5.05;;;17.30;99.90;;;;;;5030856;28;20095;-84
2022/05/23 07:03:02;;;;;;;13.32;5.15;;;17.50;99.90;;;;;;5032902;28;20045;-83
2022/05/23 07:13:40;;;;;;;11.27;5.20;;;18.20;99.90;;;;;;5064536;28;20472;-84
2022/05/23 07:16:06;;;;;;;9.85;5.13;;;18.40;99.90;;;;;;5030194;28;20140;-84
2022/05/23 07:18:32;;;;;;;11.00;4.80;;;18.60;99.90;;;;;;5032430;28;20053;-83
2022/05/23 07:20:57;;;;;;;9.73;4.85;;;18.70;99.90;;;;;;5032559;28;20045;-85
2022/05/23 07:23:23;;;;;;;11.23;5.32;;;18.80;99.90;;;;;;5030114;28;20444;-84
2022/05/23 07:25:50;;;;;;;10.98;4.72;;;18.90;99.90;;;;;;5030900;28;20053;-83
2022/05/23 07:28:16;;;;;;;10.18;4.63;;;19.10;99.90;;;;;;5031671;28;20104;-83
2022/05/23 07:30:45;;;;;;;9.70;4.53;;;19.30;99.90;;;;;;5032313;28;20404;-83
2022/05/23 07:33:11;;;;;;;10.85;4.40;;;19.40;99.90;;;;;;5032568;28;20489;-83
2022/05/23 07:35:37;;;;;;;11.20;4.90;;;19.60;99.90;;;;;;5032680;28;20134;-83
2022/05/23 07:38:03;;;;;;;10.52;4.95;;;19.70;99.90;;;;;;5035933;28;20157;-83
2022/05/23 07:40:28;;;;;;;12.07;4.82;;;19.90;99.90;;;;;;5036711;28;20072;-83
2022/05/23 07:42:54;;;;;;;9.05;4.32;;;20.00;99.90;;;;;;5034292;28;20041;-83
2022/05/23 07:45:19;;;;;;;11.05;4.93;;;20.00;99.90;;;;;;5036099;28;20484;-83
2022/05/23 07:47:45;;;;;;;10.27;5.38;;;20.10;99.90;;;;;;5034463;28;20124;-83
2022/05/23 07:50:13;;;;;;;10.35;4.82;;;20.20;99.90;;;;;;5034487;28;20056;-84
2022/05/23 07:52:39;;;;;;;11.27;4.40;;;20.30;99.90;;;;;;5035397;28;20485;-84
2022/05/23 08:00:37;;;;;;;9.85;4.60;;;20.50;99.90;;;;;;5036177;28;20485;-84
2022/05/23 08:03:13;;;;;;;10.18;4.32;;;20.70;99.90;;;;;;5036135;28;20091;-84
2022/05/23 08:05:39;;;;;;;11.05;4.38;;;20.70;99.90;;;;;;5034518;28;20095;-84
2022/05/23 08:08:06;;;;;;;9.43;4.65;;;20.80;99.90;;;;;;5035723;28;20158;-83
2022/05/23 08:10:32;;;;;;;10.30;4.60;;;20.80;99.90;;;;;;5035464;28;20046;-83
2022/05/23 08:12:58;;;;;;;11.45;4.53;;;20.90;99.90;;;;;;5035623;28;20058;-83
2022/05/23 08:15:26;;;;;;;10.93;4.40;;;20.90;99.90;;;;;;5034723;28;20045;-84
2022/05/23 08:17:52;;;;;;;9.77;4.45;;;21.00;99.90;;;;;;5035050;28;20050;-84
2022/05/23 08:20:18;;;;;;;10.65;4.55;;;21.00;99.90;;;;;;5034428;28;20053;-84
2022/05/23 08:22:45;;;;;;;13.38;4.93;;;21.20;99.90;;;;;;5034453;28;20038;-83
2022/05/23 08:25:11;;;;;;;10.23;4.50;;;21.20;99.90;;;;;;5035198;28;20041;-83
2022/05/23 08:27:37;;;;;;;9.77;4.10;;;21.40;99.90;;;;;;5034696;28;20389;-84
2022/05/23 08:30:04;;;;;;;9.20;4.38;;;21.50;99.90;;;;;;5034108;28;20045;-84
2022/05/23 08:32:30;;;;;;;9.90;4.50;;;21.60;99.90;;;;;;5067172;28;20049;-84
2022/05/23 08:34:55;;;;;;;10.15;4.57;;;21.70;99.90;;;;;;5035678;28;20051;-84
2022/05/23 08:37:21;;;;;;;10.27;4.40;;;21.80;99.90;;;;;;5035629;28;20508;-84
2022/05/23 08:39:49;;;;;;;13.55;4.47;;;22.00;99.90;;;;;;5034448;28;20091;-84
2022/05/23 08:42:40;;;;;;;12.00;5.03;;;22.10;99.90;;;;;;5035663;28;20040;-84
2022/05/23 08:45:14;;;;;;;11.60;4.55;;;22.30;99.90;;;;;;5035311;28;20107;-84
2022/05/23 08:47:58;;;;;;;14.30;4.50;;;22.40;99.90;;;;;;5033504;28;20505;-84
2022/05/23 08:50:41;;;;;;;10.57;4.32;;;22.40;99.90;;;;;;5035670;28;20088;-84
2022/05/23 08:53:22;;;;;;;9.68;4.15;;;22.40;99.90;;;;;;5033533;28;20049;-84
2022/05/23 08:55:54;;;;;;;10.13;4.22;;;22.50;99.90;;;;;;5034172;28;20148;-84
2022/05/23 08:58:30;;;;;;;9.75;3.97;;;22.50;99.90;;;;;;5033593;28;20041;-86
2022/05/23 09:01:05;;;;;;;11.05;4.30;;;22.60;99.90;;;;;;5034470;28;20041;-86
2022/05/23 09:03:47;;;;;;;9.02;4.28;;;22.80;99.90;;;;;;5033697;28;20096;-85
2022/05/23 09:06:30;;;;;;;11.38;4.40;;;22.60;99.90;;;;;;5034134;28;20044;-85
2022/05/23 09:09:01;;;;;;;11.32;4.57;;;22.80;99.90;;;;;;5034120;28;20041;-85
2022/05/23 09:11:41;;;;;;;11.25;4.65;;;23.00;99.90;;;;;;5032284;28;20499;-85
2022/05/23 09:14:10;;;;;;;10.27;4.60;;;23.20;99.90;;;;;;5034350;28;20048;-85
2022/05/23 09:16:40;;;;;;;10.02;4.35;;;23.30;99.90;;;;;;5050152;28;20124;-85
2022/05/23 09:19:37;;;;;;;9.80;3.90;;;23.40;99.90;;;;;;5034713;28;20061;-85
2022/05/23 09:22:14;;;;;;;12.70;4.50;;;23.50;99.90;;;;;;5033730;28;20044;-85
2022/05/23 09:24:45;;;;;;;9.30;3.97;;;23.50;99.90;;;;;;5033615;28;20111;-86
2022/05/23 09:27:35;;;;;;;10.15;4.15;;;23.60;99.90;;;;;;5033061;28;20041;-85
2022/05/23 09:30:02;;;;;;;10.10;3.70;;;23.80;99.90;;;;;;5033705;28;20049;-84
2022/05/23 09:32:34;;;;;;;8.80;4.00;;;23.80;99.90;;;;;;5033562;28;20099;-84
2022/05/23 09:35:04;;;;;;;10.55;4.05;;;24.00;99.90;;;;;;5032049;28;20045;-84
2022/05/23 09:37:39;;;;;;;9.50;3.53;;;24.10;99.90;;;;;;5033406;28;20057;-84
2022/05/23 09:40:09;;;;;;;9.45;3.70;;;24.20;99.90;;;;;;5032840;28;20049;-85
2022/05/23 09:48:22;;;;;;;8.88;3.05;;;24.80;99.90;;;;;;5066444;28;20061;-85
2022/05/23 09:51:07;;;;;;;9.10;3.70;;;24.80;99.90;;;;;;5031971;28;20036;-84
2022/05/23 09:53:53;;;;;;;8.52;3.42;;;24.50;99.80;;;;;;5034396;28;20048;-84
2022/05/23 09:56:34;;;;;;;9.20;2.88;;;24.20;99.60;;;;;;5031884;28;20056;-86
2022/05/23 09:59:04;;;;;;;8.77;3.20;;;24.40;99.90;;;;;;5031626;28;20053;-85
2022/05/23 10:01:33;;;;;;;9.45;2.95;;;24.50;99.40;;;;;;5033238;28;20079;-85
2022/05/23 10:04:00;;;;;;;8.35;3.10;;;24.50;98.20;;;;;;5031831;28;20076;-85
2022/05/23 10:06:40;;;;;;;8.52;2.85;;;24.70;98.00;;;;;;5033996;28;20065;-85
2022/05/23 10:09:07;;;;;;;8.15;3.00;;;24.60;98.10;;;;;;5033941;28;20045;-86
2022/05/23 10:11:36;;;;;;;8.65;3.35;;;24.80;97.40;;;;;;5034640;28;20060;-85
2022/05/23 10:14:07;;;;;;;10.10;3.17;;;25.10;97.30;;;;;;5036161;28;20084;-85
2022/05/23 10:16:53;;;;;;;8.95;3.28;;;25.40;97.00;;;;;;5032381;28;20060;-85
2022/05/23 10:19:38;;;;;;;7.75;3.15;;;25.50;95.80;;;;;;5048119;22;20090;-85
2022/05/23 10:22:14;;;;;;;8.15;2.83;;;25.50;94.80;;;;;;5030965;28;20057;-85
2022/05/23 10:24:52;;;;;;;9.15;3.08;;;25.50;96.00;;;;;;5032713;28;20049;-85
2022/05/23 10:27:31;;;;;;;8.77;3.05;;;25.60;95.70;;;;;;5033842;28;20045;-85
2022/05/23 10:30:00;;;;;;;8.38;2.90;;;25.70;95.90;;;;;;5032026;28;20113;-85
2022/05/23 10:32:48;;;;;;;9.45;2.80;;;25.70;96.10;;;;;;5031807;28;20057;-84
2022/05/23 10:35:36;;;;;;;9.05;3.10;;;25.70;94.80;;;;;;5033657;28;20053;-85
2022/05/23 10:44:15;;;;;;;10.35;2.40;;;26.10;94.60;;;;;;5032252;28;20132;-88
2022/05/23 10:46:47;;;;;;;7.25;2.70;;;26.40;95.40;;;;;;5032700;28;20045;-87
2022/05/23 10:49:21;;;;;;;8.45;2.83;;;26.40;94.00;;;;;;5032221;28;20057;-83
2022/05/23 10:52:12;;;;;;;8.05;3.10;;;26.40;93.10;;;;;;5031417;28;20045;-84
2022/05/23 10:54:45;;;;;;;7.97;3.08;;;26.20;93.10;;;;;;5031089;28;20056;-84
2022/05/23 10:57:20;;;;;;;8.70;3.10;;;26.30;94.70;;;;;;5032108;28;20055;-84
2022/05/23 11:00:12;;;;;;;7.90;3.00;;;26.40;93.60;;;;;;5030734;28;20167;-85
2022/05/23 11:02:53;;;;;;;8.23;3.00;;;26.40;93.60;;;;;;5031918;28;20057;-84
2022/05/23 11:05:20;;;;;;;8.93;3.20;;;26.30;93.60;;;;;;5033355;28;20397;-84
2022/05/23 11:08:00;;;;;;;6.78;2.63;;;26.00;93.20;;;;;;5030918;28;20564;-85
2022/05/23 11:10:42;;;;;;;8.73;3.15;;;26.10;94.10;;;;;;5032721;28;20155;-86
2022/05/23 11:13:14;;;;;;;8.15;2.78;;;26.10;93.30;;;;;;5011889;28;20042;-86
2022/05/23 11:16:09;;;;;;;7.87;2.83;;;26.30;92.90;;;;;;5011423;28;20046;-87
2022/05/23 11:18:47;;;;;;;7.63;2.80;;;26.40;93.70;;;;;;5012212;28;20050;-86
2022/05/23 11:21:22;;;;;;;7.72;2.60;;;27.10;93.70;;;;;;5012405;28;20061;-84
2022/05/23 11:23:57;;;;;;;8.13;2.80;;;27.10;94.00;;;;;;5011195;28;20513;-83
2022/05/23 11:26:40;;;;;;;8.45;2.90;;;27.10;93.70;;;;;;5013216;28;20052;-83
2022/05/23 11:34:58;;;;;;;10.63;3.20;;;27.30;92.90;;;;;;5012259;28;20423;-82
2022/05/23 11:40:04;;;;;;;10.17;3.10;;;26.80;91.60;;;;;;5011250;28;20064;-83
2022/05/23 11:42:56;;;;;;;8.38;2.72;;;26.60;92.50;;;;;;5053592;22;20315;-82
2022/05/23 11:48:40;;;;;;;8.98;3.10;;;26.60;93.00;;;;;;5052572;28;20053;-82
2022/05/23 11:51:24;;;;;;;8.95;2.90;;;26.70;92.60;;;;;;5044061;28;20493;-83
2022/05/23 11:54:01;;;;;;;9.25;3.22;;;27.10;92.40;;;;;;5052144;28;20041;-83
2022/05/23 11:56:40;;;;;;;8.48;3.20;;;27.20;92.20;;;;;;5051837;28;20079;-82
2022/05/23 11:59:08;;;;;;;8.57;3.00;;;27.10;92.30;;;;;;5051914;28;20437;-82
2022/05/23 12:01:35;;;;;;;9.35;3.70;;;27.30;92.40;;;;;;5052614;28;20075;-83
2022/05/23 12:04:00;;;;;;;9.70;3.33;;;27.30;92.30;;;;;;5051239;28;20057;-82
2022/05/23 12:06:29;;;;;;;8.45;3.20;;;27.10;92.10;;;;;;5051214;28;20447;-83
2022/05/23 12:08:57;;;;;;;8.02;3.22;;;27.00;92.40;;;;;;5050966;28;20115;-82
2022/05/23 12:11:24;;;;;;;10.00;3.60;;;26.90;92.20;;;;;;5051675;28;20047;-83
2022/05/23 12:13:51;;;;;;;9.45;3.22;;;26.90;92.70;;;;;;5050677;28;20045;-82
2022/05/23 12:16:39;;;;;;;10.07;3.83;;;26.80;92.70;;;;;;5050936;28;20045;-82
2022/05/23 12:19:05;;;;;;;8.30;3.42;;;26.60;92.10;;;;;;5052115;28;20124;-83
2022/05/23 12:21:42;;;;;;;9.15;3.38;;;26.80;92.50;;;;;;5052698;28;20101;-83
2022/05/23 12:24:21;;;;;;;9.07;3.28;;;27.00;92.80;;;;;;5055089;28;20044;-82
2022/05/23 12:26:52;;;;;;;8.32;3.50;;;26.90;92.60;;;;;;5055816;28;20055;-83
2022/05/23 12:29:23;;;;;;;9.77;3.75;;;26.80;92.70;;;;;;5054489;28;20064;-83
2022/05/23 12:32:17;;;;;;;8.00;3.30;;;26.70;92.20;;;;;;5053565;28;20076;-83
2022/05/23 12:34:49;;;;;;;;;;;26.80;93.20;;;;;;5054524;28;20072;-83
2022/05/23 12:37:27;;;;;;;8.73;3.45;;;26.70;92.60;;;;;;5054378;28;19924;-82
2022/05/23 12:39:55;;;;;;;8.68;3.35;;;26.40;92.70;;;;;;5054730;28;20127;-82
2022/05/23 12:42:27;;;;;;;7.78;3.20;;;26.40;93.40;;;;;;5053997;28;20055;-83
2022/05/23 12:45:04;;;;;;;7.95;3.20;;;26.30;94.10;;;;;;5053152;28;20064;-83
2022/05/23 12:47:48;;;;;;;8.80;3.30;;;26.20;93.80;;;;;;5055734;28;20043;-82
2022/05/23 12:50:38;;;;;;;8.88;3.15;;;26.10;94.10;;;;;;5054391;28;20396;-82
2022/05/23 12:53:31;;;;;;;10.40;3.25;;;25.90;94.30;;;;;;5054483;28;20033;-83
2022/05/23 12:56:06;;;;;;;;;;;25.90;94.30;;;;;;5055555;28;20049;-83
2022/05/23 12:58:54;;;;;;;8.48;3.13;;;25.80;94.50;;;;;;5055407;28;19928;-83
2022/05/23 13:01:25;;;;;;;10.32;3.20;;;26.00;94.20;;;;;;5053831;28;20037;-82
2022/05/23 13:04:07;;;;;;;9.20;3.00;;;26.20;94.20;;;;;;5053379;28;20072;-82
2022/05/23 13:06:49;;;;;;;9.30;2.92;;;26.30;93.50;;;;;;5053535;28;20053;-83
2022/05/23 13:09:20;;;;;;;10.57;3.25;;;26.10;92.40;;;;;;5053609;28;20048;-82
2022/05/23 13:11:50;;;;;;;11.40;2.90;;;26.00;93.10;;;;;;5053587;28;20052;-82
2022/05/23 13:14:16;;;;;;;9.50;3.20;;;25.80;92.10;;;;;;5053915;28;20041;-82
2022/05/23 13:16:54;;;;;;;7.93;3.40;;;25.70;92.60;;;;;;5054669;28;20044;-82
2022/05/23 13:22:10;;;;;;;8.93;3.33;;;25.40;93.00;;;;;;5054150;28;20041;-82
2022/05/23 13:24:56;;;;;;;7.95;3.08;;;25.30;92.90;;;;;;5054879;28;20087;-83
2022/05/23 13:27:42;;;;;;;9.40;3.75;;;25.30;93.30;;;;;;5053020;28;20561;-82
2022/05/23 13:30:35;;;;;;;9.60;3.65;;;25.20;93.30;;;;;;5053694;28;20468;-82
2022/05/23 13:33:14;;;;;;;8.73;3.30;;;25.20;93.10;;;;;;5053994;28;20520;-82
2022/05/23 13:35:42;;;;;;;8.30;3.22;;;25.20;93.50;;;;;;5053663;28;20167;-82
2022/05/23 13:38:25;;;;;;;11.65;3.92;;;25.30;93.70;;;;;;5053287;28;20037;-82
2022/05/23 13:40:54;;;;;;;9.52;3.63;;;25.20;93.60;;;;;;5053837;28;20060;-82
2022/05/23 13:43:28;;;;;;;9.50;3.63;;;25.20;93.80;;;;;;5052583;28;20377;-82
2022/05/23 13:46:24;;;;;;;9.70;3.70;;;25.00;93.70;;;;;;5052553;28;20051;-82
2022/05/23 13:49:07;;;;;;;9.55;4.00;;;25.10;94.70;;;;;;5053561;28;20071;-82
2022/05/23 13:51:36;;;;;;;9.68;3.45;;;24.90;94.10;;;;;;5052937;28;20045;-82
2022/05/23 13:54:29;;;;;;;9.50;3.60;;;24.80;94.30;;;;;;5052913;28;20129;-82
2022/05/23 13:57:10;;;;;;;9.73;3.83;;;24.70;94.20;;;;;;5044023;28;20139;-82
2022/05/23 13:59:51;;;;;;;9.73;3.72;;;24.80;94.60;;;;;;5052796;28;20396;-82
2022/05/23 14:02:28;;;;;;;7.55;3.30;;;24.80;94.80;;;;;;5053248;28;20041;-82
2022/05/23 14:04:54;;;;;;;9.73;3.78;;;24.80;95.50;;;;;;5054015;28;20061;-82
2022/05/23 14:07:25;;;;;;;9.98;3.70;;;24.90;95.90;;;;;;5052484;28;20120;-83